createdAt,value
2023-04-09T00:00:15.116Z,17.60
2023-04-09T00:02:43.203Z,18.00
2023-04-09T00:05:11.593Z,17.67
2023-04-09T00:07:39.563Z,17.70
2023-04-09T00:10:10.076Z,17.73
2023-04-09T00:12:38.013Z,17.50
2023-04-09T00:15:09.641Z,17.70
2023-04-09T00:17:39.429Z,17.83
2023-04-09T00:20:08.927Z,17.37
2023-04-09T00:22:37.239Z,17.80
2023-04-09T00:25:05.994Z,17.80
2023-04-09T00:27:35.364Z,17.80
2023-04-09T00:30:03.626Z,17.57
2023-04-09T00:32:31.586Z,17.40
2023-04-09T00:34:59.533Z,17.80
2023-04-09T00:37:27.468Z,17.70
2023-04-09T00:39:55.679Z,18.00
2023-04-09T00:42:23.764Z,18.00
2023-04-09T00:44:54.019Z,17.87
2023-04-09T00:47:22.098Z,18.03
2023-04-09T00:49:50.172Z,17.57
2023-04-09T00:52:18.151Z,17.93
2023-04-09T00:54:46.140Z,17.73
2023-04-09T00:57:14.134Z,18.03
2023-04-09T00:59:42.569Z,18.23
2023-04-09T01:02:12.593Z,17.90
2023-04-09T01:04:44.433Z,17.90
2023-04-09T01:07:18.488Z,18.00
2023-04-09T01:09:55.480Z,18.10
2023-04-09T01:12:34.350Z,18.10
2023-04-09T01:15:08.862Z,17.77
2023-04-09T01:17:46.005Z,18.10
2023-04-09T01:20:19.886Z,18.07
2023-04-09T01:22:58.095Z,17.90
2023-04-09T01:25:37.066Z,18.00
2023-04-09T01:28:23.904Z,17.90
2023-04-09T01:30:57.653Z,18.13
2023-04-09T01:33:26.641Z,18.07
2023-04-09T01:35:56.006Z,18.13
2023-04-09T01:38:25.210Z,18.20
2023-04-09T01:40:54.209Z,18.30
2023-04-09T01:43:24.973Z,17.97
2023-04-09T01:45:54.185Z,18.00
2023-04-09T01:48:23.446Z,18.03
2023-04-09T01:50:52.396Z,17.67
2023-04-09T01:53:20.836Z,18.13
2023-04-09T01:55:48.791Z,18.20
2023-04-09T01:58:16.791Z,17.93
2023-04-09T02:00:49.249Z,18.83
2023-04-09T02:03:20.674Z,18.13
2023-04-09T02:05:54.572Z,18.17
2023-04-09T02:08:23.576Z,18.20
2023-04-09T02:10:55.708Z,17.97
2023-04-09T02:13:27.879Z,18.07
2023-04-09T02:15:59.394Z,17.77
2023-04-09T02:18:29.302Z,18.50
2023-04-09T02:20:58.833Z,17.87
2023-04-09T02:23:28.100Z,17.90
2023-04-09T02:25:56.351Z,18.50
2023-04-09T02:28:24.485Z,17.77
2023-04-09T02:30:53.352Z,18.00
2023-04-09T02:33:22.873Z,18.50
2023-04-09T02:35:50.874Z,18.07
2023-04-09T02:38:18.905Z,36.27
2023-04-09T02:40:46.878Z,36.83
2023-04-09T02:43:14.823Z,37.73
2023-04-09T02:45:42.903Z,37.10
2023-04-09T02:48:11.096Z,37.80
2023-04-09T02:50:40.414Z,37.97
2023-04-09T02:53:08.380Z,37.87
2023-04-09T02:55:37.286Z,38.23
2023-04-09T02:58:05.257Z,37.87
2023-04-09T03:00:33.309Z,37.93
2023-04-09T03:03:01.448Z,39.57
2023-04-09T03:05:29.721Z,38.93
2023-04-09T03:07:59.012Z,39.70
2023-04-09T03:10:26.937Z,38.07
2023-04-09T03:12:55.341Z,38.33
2023-04-09T03:15:23.347Z,38.50
2023-04-09T03:17:51.307Z,37.97
2023-04-09T03:20:19.422Z,37.83
2023-04-09T03:22:47.426Z,40.07
2023-04-09T03:25:19.476Z,38.00
2023-04-09T03:27:48.111Z,38.27
2023-04-09T03:30:16.266Z,18.43
2023-04-09T03:32:44.242Z,18.80
2023-04-09T03:35:12.228Z,18.90
2023-04-09T03:37:40.182Z,18.53
2023-04-09T03:40:09.233Z,18.60
2023-04-09T03:42:38.555Z,18.50
2023-04-09T03:45:07.359Z,19.10
2023-04-09T03:47:35.330Z,18.57
2023-04-09T03:50:04.206Z,18.47
2023-04-09T03:52:32.256Z,18.60
2023-04-09T03:55:00.523Z,18.60
2023-04-09T03:57:28.509Z,18.30
2023-04-09T03:59:57.892Z,18.57
2023-04-09T04:02:27.151Z,18.27
2023-04-09T04:04:55.603Z,17.70
2023-04-09T04:07:23.544Z,18.90
2023-04-09T04:09:51.454Z,19.20
2023-04-09T04:12:19.398Z,37.93
2023-04-09T04:14:47.376Z,38.27
2023-04-09T04:17:16.701Z,36.97
2023-04-09T04:19:44.647Z,37.77
2023-04-09T04:22:12.585Z,37.30
2023-04-09T04:24:40.677Z,36.90
2023-04-09T04:27:09.049Z,38.00
2023-04-09T04:29:37.600Z,38.27
2023-04-09T04:32:06.159Z,37.97
2023-04-09T04:34:35.511Z,38.07
2023-04-09T04:37:03.753Z,39.00
2023-04-09T04:39:32.465Z,38.00
2023-04-09T04:42:01.327Z,39.30
2023-04-09T04:44:29.408Z,38.87
2023-04-09T04:46:57.391Z,38.73
2023-04-09T04:49:25.509Z,38.53
2023-04-09T04:51:54.826Z,36.77
2023-04-09T04:54:22.938Z,36.30
2023-04-09T04:56:50.997Z,34.40
2023-04-09T04:59:19.012Z,33.83
2023-04-09T05:01:47.005Z,32.67
2023-04-09T05:04:14.993Z,21.70
2023-04-09T05:06:42.964Z,17.03
2023-04-09T05:09:12.403Z,17.00
2023-04-09T05:11:41.593Z,16.67
2023-04-09T05:14:09.549Z,16.73
2023-04-09T05:16:37.565Z,17.07
2023-04-09T05:19:05.678Z,16.40
2023-04-09T05:21:33.748Z,16.87
2023-04-09T05:24:01.746Z,18.03
2023-04-09T05:26:31.143Z,17.60
2023-04-09T05:28:59.280Z,17.87
2023-04-09T05:31:27.212Z,17.27
2023-04-09T05:33:55.317Z,17.33
2023-04-09T05:36:23.314Z,18.80
2023-04-09T05:38:51.487Z,18.30
2023-04-09T05:41:19.656Z,17.53
2023-04-09T05:43:48.951Z,17.57
2023-04-09T05:46:16.928Z,18.00
2023-04-09T05:48:44.863Z,17.47
2023-04-09T05:51:12.974Z,18.10
2023-04-09T05:53:41.277Z,17.80
2023-04-09T05:56:16.144Z,18.60
2023-04-09T05:58:44.091Z,17.77
2023-04-09T06:01:13.877Z,17.70
2023-04-09T06:03:44.730Z,17.30
2023-04-09T06:06:12.819Z,17.93
2023-04-09T06:08:40.932Z,18.60
2023-04-09T06:11:10.595Z,17.97
2023-04-09T06:13:38.599Z,19.03
2023-04-09T06:16:07.398Z,17.87
2023-04-09T06:18:37.538Z,17.40
2023-04-09T06:21:06.074Z,17.27
2023-04-09T06:23:34.873Z,33.17
2023-04-09T06:26:02.914Z,33.07
2023-04-09T06:28:31.594Z,33.83
2023-04-09T06:31:00.502Z,33.80
2023-04-09T06:33:28.648Z,18.00
2023-04-09T06:35:57.952Z,34.17
2023-04-09T06:38:25.953Z,34.87
2023-04-09T06:40:53.882Z,33.93
2023-04-09T06:43:21.823Z,34.07
2023-04-09T06:45:49.785Z,34.27
2023-04-09T06:48:17.752Z,34.53
2023-04-09T06:50:46.240Z,34.30
2023-04-09T06:53:16.548Z,34.07
2023-04-09T06:55:44.620Z,18.10
2023-04-09T06:58:12.678Z,18.73
2023-04-09T07:00:40.961Z,18.40
2023-04-09T07:03:09.529Z,21.23
2023-04-09T07:05:37.789Z,34.87
2023-04-09T07:08:06.113Z,35.23
2023-04-09T07:10:35.870Z,35.37
2023-04-09T07:13:03.841Z,34.97
2023-04-09T07:15:31.798Z,34.50
2023-04-09T07:17:59.907Z,36.20
2023-04-09T07:20:27.893Z,34.57
2023-04-09T07:22:55.978Z,18.03
2023-04-09T07:25:24.058Z,18.50
2023-04-09T07:27:53.432Z,19.30
2023-04-09T07:30:22.410Z,19.10
2023-04-09T07:32:50.671Z,19.00
2023-04-09T07:35:19.420Z,19.47
2023-04-09T07:37:47.409Z,28.90
2023-04-09T07:40:15.396Z,30.77
2023-04-09T07:42:43.736Z,29.70
2023-04-09T07:45:13.134Z,29.30
2023-04-09T07:47:42.109Z,27.23
2023-04-09T07:50:11.324Z,23.40
2023-04-09T07:52:39.558Z,19.50
2023-04-09T07:55:08.075Z,18.10
2023-04-09T07:57:36.857Z,17.83
2023-04-09T08:00:05.869Z,17.47
2023-04-09T08:02:35.485Z,18.23
2023-04-09T08:05:04.222Z,19.00
2023-04-09T08:07:32.230Z,18.97
2023-04-09T08:10:00.369Z,18.60
2023-04-09T08:12:28.438Z,18.67
2023-04-09T08:14:56.410Z,19.70
2023-04-09T08:17:24.677Z,20.03
2023-04-09T08:19:54.189Z,19.67
2023-04-09T08:22:22.167Z,18.80
2023-04-09T08:24:52.868Z,22.37
2023-04-09T08:27:22.122Z,24.30
2023-04-09T08:29:50.739Z,19.90
2023-04-09T08:32:18.873Z,18.50
2023-04-09T08:34:46.896Z,18.73
2023-04-09T08:37:16.618Z,18.20
2023-04-09T08:39:44.630Z,23.13
2023-04-09T08:42:13.647Z,18.02
2023-04-09T08:44:41.723Z,16.80
2023-04-09T08:47:11.634Z,23.17
2023-04-09T08:49:41.230Z,19.77
2023-04-09T08:52:09.320Z,19.67
2023-04-09T08:54:38.686Z,19.60
2023-04-09T08:57:07.375Z,20.40
2023-04-09T08:59:37.109Z,18.30
2023-04-09T09:02:08.973Z,34.00
2023-04-09T09:04:46.547Z,33.88
2023-04-09T09:07:14.769Z,36.15
2023-04-09T09:09:54.607Z,35.70
2023-04-09T09:12:37.127Z,35.97
2023-04-09T09:15:05.991Z,37.97
2023-04-09T09:17:34.281Z,38.53
2023-04-09T09:20:20.952Z,38.30
2023-04-09T09:22:54.912Z,49.88
2023-04-09T09:25:26.435Z,41.80
2023-04-09T09:27:55.351Z,39.33
2023-04-09T09:30:24.894Z,39.17
2023-04-09T09:32:54.136Z,37.95
2023-04-09T09:35:22.438Z,39.30
2023-04-09T09:38:03.081Z,39.03
2023-04-09T09:40:32.680Z,38.63
2023-04-09T09:43:00.706Z,38.35
2023-04-09T09:45:30.198Z,37.33
2023-04-09T09:47:58.207Z,20.63
2023-04-09T09:50:27.106Z,18.30
2023-04-09T09:53:03.224Z,18.60
2023-04-09T09:55:34.042Z,19.05
2023-04-09T09:58:04.730Z,18.98
2023-04-09T10:00:34.239Z,18.15
2023-04-09T10:03:11.677Z,18.02
2023-04-09T10:05:41.624Z,18.50
2023-04-09T10:08:10.512Z,18.38
2023-04-09T10:10:42.192Z,18.42
2023-04-09T10:13:14.148Z,18.30
2023-04-09T10:15:43.220Z,18.33
2023-04-09T10:18:11.684Z,18.85
2023-04-09T10:20:49.033Z,19.00
2023-04-09T10:23:23.632Z,19.17
2023-04-09T10:25:53.066Z,18.92
2023-04-09T10:28:21.044Z,18.35
2023-04-09T10:30:49.061Z,18.48
2023-04-09T10:33:26.525Z,17.63
2023-04-09T10:35:55.127Z,18.52
2023-04-09T10:38:37.186Z,18.27
2023-04-09T10:41:13.365Z,18.45
2023-04-09T10:43:42.007Z,18.25
2023-04-09T10:46:27.252Z,17.80
2023-04-09T10:49:09.918Z,17.98
2023-04-09T10:51:38.992Z,17.70
2023-04-09T10:54:07.154Z,18.00
2023-04-09T10:56:36.593Z,17.40
2023-04-09T10:59:04.575Z,18.05
2023-04-09T11:01:32.652Z,18.20
2023-04-09T11:04:10.799Z,17.95
2023-04-09T11:06:42.012Z,18.00
2023-04-09T11:09:09.956Z,18.13
2023-04-09T11:11:39.259Z,18.65
2023-04-09T11:14:07.395Z,18.08
2023-04-09T11:16:45.679Z,18.13
2023-04-09T11:19:13.669Z,18.25
2023-04-09T11:21:46.124Z,17.80
2023-04-09T11:24:14.301Z,17.95
2023-04-09T11:26:43.591Z,18.17
2023-04-09T11:29:11.731Z,18.20
2023-04-09T11:31:39.814Z,17.67
2023-04-09T11:34:12.415Z,18.00
2023-04-09T11:36:40.341Z,18.15
2023-04-09T11:39:08.320Z,18.15
2023-04-09T11:41:37.464Z,17.90
2023-04-09T11:44:08.708Z,17.88
2023-04-09T11:46:37.803Z,17.88
2023-04-09T11:49:06.941Z,17.83
2023-04-09T11:51:35.608Z,17.77
2023-04-09T11:54:04.406Z,18.40
2023-04-09T11:56:33.262Z,17.73
2023-04-09T11:59:01.860Z,18.08
2023-04-09T12:01:34.060Z,17.42
2023-04-09T12:04:02.891Z,17.85
2023-04-09T12:06:31.864Z,18.05
2023-04-09T12:09:00.877Z,17.85
2023-04-09T12:11:30.153Z,17.80
2023-04-09T12:14:01.347Z,18.00
2023-04-09T12:16:33.532Z,19.13
2023-04-09T12:19:02.667Z,18.40
2023-04-09T12:21:49.808Z,19.10
2023-04-09T12:24:19.146Z,18.77
2023-04-09T12:26:47.836Z,18.13
2023-04-09T12:29:16.951Z,18.58
2023-04-09T12:31:46.802Z,17.92
2023-04-09T12:34:15.405Z,18.80
2023-04-09T12:36:43.336Z,19.80
2023-04-09T12:39:11.593Z,20.90
2023-04-09T12:41:39.594Z,25.67
2023-04-09T12:44:07.958Z,19.15
2023-04-09T12:46:36.352Z,21.90
2023-04-09T12:49:06.142Z,18.98
2023-04-09T12:51:34.088Z,18.48
2023-04-09T12:54:04.099Z,20.00
2023-04-09T12:56:32.118Z,20.08
2023-04-09T12:59:00.703Z,20.05
2023-04-09T13:01:28.867Z,19.33
2023-04-09T13:03:57.256Z,19.60
2023-04-09T13:06:27.463Z,19.15
2023-04-09T13:08:55.686Z,19.40
2023-04-09T13:11:23.674Z,19.55
2023-04-09T13:13:52.319Z,19.75
2023-04-09T13:16:20.556Z,19.95
2023-04-09T13:18:48.750Z,19.50
2023-04-09T13:21:18.851Z,19.40
2023-04-09T13:23:48.243Z,18.38
2023-04-09T13:26:16.365Z,17.38
2023-04-09T13:28:44.573Z,17.60
2023-04-09T13:31:12.590Z,18.25
2023-04-09T13:33:40.846Z,18.77
2023-04-09T13:36:09.184Z,18.40
2023-04-09T13:38:37.273Z,18.40
2023-04-09T13:41:07.212Z,18.30
2023-04-09T13:43:35.197Z,18.35
2023-04-09T13:46:04.876Z,18.23
2023-04-09T13:48:32.891Z,17.90
2023-04-09T13:51:01.223Z,18.25
2023-04-09T13:53:29.169Z,17.90
2023-04-09T13:55:57.359Z,18.58
2023-04-09T13:58:26.671Z,17.88
2023-04-09T14:00:54.678Z,15.30
2023-04-09T14:03:22.752Z,16.42
2023-04-09T14:05:50.916Z,18.55
2023-04-09T14:08:18.927Z,19.02
2023-04-09T14:10:49.929Z,18.58
2023-04-09T14:13:17.858Z,27.33
2023-04-09T14:15:47.306Z,18.33
2023-04-09T14:18:15.477Z,23.17
2023-04-09T14:20:43.625Z,31.98
2023-04-09T14:23:11.793Z,29.15
2023-04-09T14:25:39.905Z,17.52
2023-04-09T14:28:07.856Z,17.90
2023-04-09T14:30:35.993Z,17.60
2023-04-09T14:33:05.830Z,19.08
2023-04-09T14:35:33.894Z,17.80
2023-04-09T14:38:04.393Z,18.27
2023-04-09T14:40:32.661Z,18.70
2023-04-09T14:43:01.102Z,18.75
2023-04-09T14:45:30.721Z,17.73
2023-04-09T14:47:59.025Z,18.70
2023-04-09T14:50:28.452Z,19.00
2023-04-09T14:52:56.398Z,18.27
2023-04-09T14:55:25.842Z,18.17
2023-04-09T14:57:54.249Z,19.27
2023-04-09T15:00:22.633Z,17.70
2023-04-09T15:02:50.720Z,17.95
2023-04-09T15:05:18.807Z,18.05
2023-04-09T15:07:48.117Z,18.40
2023-04-09T15:10:16.302Z,18.25
2023-04-09T15:12:44.228Z,18.45
2023-04-09T15:15:14.032Z,18.40
2023-04-09T15:17:42.075Z,18.17
2023-04-09T15:20:10.730Z,18.35
2023-04-09T15:22:38.679Z,18.38
2023-04-09T15:25:25.532Z,18.50
2023-04-09T15:27:53.767Z,18.05
2023-04-09T15:30:21.784Z,17.52
2023-04-09T15:32:49.815Z,18.00
2023-04-09T15:35:24.053Z,17.48
2023-04-09T15:37:52.215Z,17.65
2023-04-09T15:40:20.770Z,20.10
2023-04-09T15:42:50.175Z,17.98
2023-04-09T15:45:18.658Z,17.67
2023-04-09T15:47:47.076Z,17.50
2023-04-09T15:50:15.855Z,17.60
2023-04-09T15:52:43.964Z,17.83
2023-04-09T15:55:12.289Z,17.70
2023-04-09T15:57:40.504Z,17.63
2023-04-09T16:00:11.093Z,17.93
2023-04-09T16:02:40.921Z,17.70
2023-04-09T16:05:09.305Z,18.00
2023-04-09T16:07:37.267Z,17.60
2023-04-09T16:10:05.836Z,18.50
2023-04-09T16:12:33.799Z,17.83
2023-04-09T16:15:01.804Z,17.70
2023-04-09T16:17:31.463Z,17.07
2023-04-09T16:20:01.029Z,17.20
2023-04-09T16:22:30.002Z,17.53
2023-04-09T16:24:57.939Z,17.43
2023-04-09T16:27:26.239Z,17.27
2023-04-09T16:29:54.291Z,18.35
2023-04-09T16:32:22.277Z,17.10
2023-04-09T16:34:51.886Z,18.13
2023-04-09T16:37:19.876Z,16.90
2023-04-09T16:39:47.830Z,17.80
2023-04-09T16:42:16.006Z,17.20
2023-04-09T16:44:43.959Z,16.90
2023-04-09T16:47:11.925Z,17.60
2023-04-09T16:49:39.879Z,17.63
2023-04-09T16:52:09.281Z,18.30
2023-04-09T16:54:37.230Z,17.80
2023-04-09T16:57:05.213Z,17.37
2023-04-09T16:59:33.452Z,17.37
2023-04-09T17:02:01.597Z,17.13
2023-04-09T17:04:29.726Z,16.90
2023-04-09T17:06:57.751Z,17.13
2023-04-09T17:09:27.057Z,16.80
2023-04-09T17:11:55.470Z,16.90
2023-04-09T17:14:23.569Z,17.23
2023-04-09T17:16:53.794Z,19.00
2023-04-09T17:19:21.780Z,17.37
2023-04-09T17:21:49.830Z,17.57
2023-04-09T17:24:17.837Z,18.50
2023-04-09T17:26:47.149Z,17.97
2023-04-09T17:29:15.174Z,17.00
2023-04-09T17:31:43.157Z,16.80
2023-04-09T17:34:11.658Z,16.40
2023-04-09T17:36:39.683Z,17.60
2023-04-09T17:39:07.650Z,18.63
2023-04-09T17:41:36.442Z,17.97
2023-04-09T17:44:05.949Z,17.40
2023-04-09T17:46:33.920Z,17.10
2023-04-09T17:49:01.911Z,17.33
2023-04-09T17:51:29.941Z,18.03
2023-04-09T17:53:57.899Z,17.90
2023-04-09T17:56:27.123Z,17.43
2023-04-09T17:58:55.204Z,17.60
2023-04-09T18:01:24.576Z,18.00
2023-04-09T18:03:52.818Z,17.97
2023-04-09T18:06:21.046Z,18.27
2023-04-09T18:08:50.305Z,18.43
2023-04-09T18:11:18.481Z,18.03
2023-04-09T18:13:46.576Z,18.10
2023-04-09T18:16:14.591Z,18.10
2023-04-09T18:18:44.076Z,17.67
2023-04-09T18:21:12.004Z,18.10
2023-04-09T18:23:40.330Z,17.90
2023-04-09T18:26:08.473Z,18.23
2023-04-09T18:28:40.750Z,17.90
2023-04-09T18:31:12.563Z,18.33
2023-04-09T18:33:40.606Z,17.90
2023-04-09T18:36:10.156Z,17.70
2023-04-09T18:38:38.308Z,17.87
2023-04-09T18:41:06.829Z,18.00
2023-04-09T18:43:34.804Z,18.10
2023-04-09T18:46:02.756Z,17.60
2023-04-09T18:48:30.783Z,18.70
2023-04-09T18:50:59.041Z,18.10
2023-04-09T18:53:28.345Z,18.23
2023-04-09T18:55:56.542Z,18.10
2023-04-09T18:58:24.510Z,18.07
2023-04-09T19:00:52.632Z,18.83
2023-04-09T19:03:20.779Z,17.97
2023-04-09T19:05:49.495Z,17.87
2023-04-09T19:08:17.547Z,17.87
2023-04-09T19:10:47.799Z,18.08
2023-04-09T19:13:16.974Z,18.13
2023-04-09T19:15:44.920Z,17.77
2023-04-09T19:18:13.103Z,17.63
2023-04-09T19:20:41.051Z,17.83
2023-04-09T19:23:09.926Z,17.90
2023-04-09T19:25:37.901Z,17.90
2023-04-09T19:28:07.219Z,17.50
2023-04-09T19:30:35.138Z,17.83
2023-04-09T19:33:03.168Z,17.83
2023-04-09T19:35:33.190Z,18.00
2023-04-09T19:38:04.186Z,18.07
2023-04-09T19:40:32.829Z,18.10
2023-04-09T19:43:00.807Z,17.70
2023-04-09T19:45:30.220Z,17.73
2023-04-09T19:47:58.235Z,17.90
2023-04-09T19:50:26.517Z,17.90
2023-04-09T19:52:55.555Z,18.00
2023-04-09T19:55:24.984Z,17.60
2023-04-09T19:57:52.949Z,17.90
2023-04-09T20:00:21.112Z,17.37
2023-04-09T20:02:51.989Z,18.00
2023-04-09T20:05:21.015Z,17.70
2023-04-09T20:07:49.262Z,18.05
2023-04-09T20:10:17.413Z,17.83
2023-04-09T20:12:48.380Z,18.03
2023-04-09T20:15:17.610Z,18.23
2023-04-09T20:17:45.573Z,18.60
2023-04-09T20:20:17.928Z,18.40
2023-04-09T20:22:47.557Z,18.90
2023-04-09T20:25:15.494Z,18.67
2023-04-09T20:27:43.695Z,18.83
2023-04-09T20:30:12.221Z,18.30
2023-04-09T20:32:40.232Z,18.70
2023-04-09T20:35:10.945Z,18.20
2023-04-09T20:37:40.383Z,18.40
2023-04-09T20:40:09.307Z,18.13
2023-04-09T20:42:37.316Z,17.77
2023-04-09T20:45:06.023Z,18.13
2023-04-09T20:47:34.171Z,18.73
2023-04-09T20:50:02.241Z,18.57
2023-04-09T20:52:30.544Z,18.40
2023-04-09T20:54:59.915Z,18.13
2023-04-09T20:57:28.274Z,18.60
2023-04-09T20:59:56.311Z,18.17
2023-04-09T21:02:24.449Z,18.50
2023-04-09T21:04:52.495Z,18.60
2023-04-09T21:07:20.506Z,18.70
2023-04-09T21:09:48.427Z,19.10
2023-04-09T21:12:17.745Z,19.37
2023-04-09T21:14:46.024Z,18.80
2023-04-09T21:17:13.993Z,20.97
2023-04-09T21:19:42.024Z,18.30
2023-04-09T21:22:10.104Z,18.80
2023-04-09T21:24:38.210Z,18.50
2023-04-09T21:27:07.494Z,17.97
2023-04-09T21:29:36.785Z,18.03
2023-04-09T21:32:04.754Z,18.10
2023-04-09T21:34:32.805Z,19.00
2023-04-09T21:37:03.537Z,18.00
2023-04-09T21:39:31.525Z,18.73
2023-04-09T21:41:59.461Z,18.33
2023-04-09T21:44:27.497Z,18.90
2023-04-09T21:46:56.830Z,18.40
2023-04-09T21:49:24.767Z,18.37
2023-04-09T21:51:52.941Z,18.10
2023-04-09T21:54:20.894Z,18.40
2023-04-09T21:56:48.811Z,19.13
2023-04-09T21:59:16.782Z,18.67
2023-04-09T22:01:44.797Z,19.77
2023-04-09T22:04:14.384Z,17.97
2023-04-09T22:06:42.641Z,19.77
2023-04-09T22:09:10.658Z,20.30
2023-04-09T22:11:41.236Z,18.70
2023-04-09T22:14:09.301Z,18.30
2023-04-09T22:16:37.408Z,18.70
2023-04-09T22:19:05.647Z,17.97
2023-04-09T22:21:35.012Z,18.00
2023-04-09T22:24:02.987Z,18.60
2023-04-09T22:26:32.112Z,18.43
2023-04-09T22:29:00.087Z,18.50
2023-04-09T22:31:28.376Z,18.27
2023-04-09T22:33:57.570Z,18.40
2023-04-09T22:36:27.339Z,18.07
2023-04-09T22:38:56.666Z,18.13
2023-04-09T22:41:24.634Z,18.90
2023-04-09T22:43:54.615Z,18.70
2023-04-09T22:46:22.701Z,18.80
2023-04-09T22:48:51.646Z,18.67
2023-04-09T22:51:19.625Z,19.00
2023-04-09T22:53:47.923Z,18.60
2023-04-09T22:56:17.355Z,18.67
2023-04-09T22:58:45.533Z,18.40
2023-04-09T23:01:13.663Z,18.93
2023-04-09T23:03:41.664Z,18.90
2023-04-09T23:06:09.617Z,18.40
2023-04-09T23:08:38.819Z,18.57
2023-04-09T23:11:08.810Z,18.30
2023-04-09T23:13:38.160Z,18.63
2023-04-09T23:16:07.152Z,18.50
2023-04-09T23:18:38.299Z,18.13
2023-04-09T23:21:07.250Z,18.60
2023-04-09T23:23:35.428Z,18.80
2023-04-09T23:26:03.881Z,18.93
2023-04-09T23:28:31.924Z,18.53
2023-04-09T23:31:01.422Z,18.30
2023-04-09T23:33:29.431Z,18.17
2023-04-09T23:35:57.409Z,18.97
2023-04-09T23:38:25.427Z,18.47
2023-04-09T23:40:53.444Z,18.67
2023-04-09T23:43:21.422Z,18.53
2023-04-09T23:45:50.502Z,18.30
2023-04-09T23:48:19.836Z,18.53
2023-04-09T23:50:47.824Z,18.30
2023-04-09T23:53:16.229Z,18.23
2023-04-09T23:55:45.379Z,18.20
2023-04-09T23:58:13.885Z,18.20
